Time;durP1;ratioP1;P1;durP2;ratioP2;P2;SDS_P1;SDS_P2;PMS_P1;PMS_P2;Temp;Humidity;BMP_temperature;BMP_pressure;BME280_temperature;BME280_humidity;BME280_pressure;Samples;Min_cycle;Max_cycle;Signal;HPM_P1;HPM_P2
2022/02/03 00:05:58;;;;;;;12.47;7.42;;;;;;;2.87;88.44;100413.59;2960924;79;20995;-68
2022/02/03 00:10:24;;;;;;;12.35;6.80;;;;;;;2.90;88.47;100413.45;2960573;79;21011;-68
2022/02/03 00:27:14;;;;;;;19.77;7.77;;;;;;;3.13;88.92;100432.03;2960707;80;21430;-69
2022/02/03 00:31:30;;;;;;;21.42;7.42;;;;;;;3.14;89.07;100440.30;2966142;79;21314;-70
2022/02/03 00:52:06;;;;;;;14.98;7.97;;;;;;;3.26;89.34;100483.10;2971133;79;21019;-69
2022/02/03 00:56:14;;;;;;;18.15;8.33;;;;;;;3.31;89.60;100491.22;2971473;79;21030;-68
2022/02/03 01:00:18;;;;;;;14.95;4.92;;;;;;;3.34;89.85;100496.33;2971272;80;21018;-68
2022/02/03 01:04:22;;;;;;;9.00;4.83;;;;;;;3.39;89.93;100508.81;2970828;79;20979;-70
2022/02/03 01:08:27;;;;;;;10.08;4.90;;;;;;;3.38;90.16;100505.80;2970740;79;21658;-69
2022/02/03 01:21:31;;;;;;;11.68;3.70;;;;;;;3.30;91.93;100514.05;2971726;80;20987;-70
2022/02/03 01:47:05;;;;;;;11.18;5.42;;;;;;;3.29;91.51;100542.59;2962296;79;21007;-68
2022/02/03 01:54:53;;;;;;;8.38;3.77;;;;;;;3.12;92.30;100545.55;2961315;79;21030;-68
2022/02/03 01:58:58;;;;;;;5.50;3.45;;;;;;;3.07;92.08;100546.67;2962008;79;20991;-68
2022/02/03 02:03:08;;;;;;;16.80;4.42;;;;;;;2.77;92.76;100536.66;2961607;80;20972;-68
2022/02/03 02:07:33;;;;;;;7.80;4.00;;;;;;;2.77;92.76;100536.66;2955891;80;21046;-68
2022/02/03 02:12:16;;;;;;;13.85;4.53;;;;;;;2.82;93.35;100564.41;2960907;79;21654;-68
2022/02/03 02:16:31;;;;;;;7.17;4.40;;;;;;;2.76;93.39;100565.17;2961083;79;21090;-68
2022/02/03 02:46:32;;;;;;;;;;;;;;;2.27;94.18;100582.13;2964105;79;21047;-68
2022/02/03 02:51:02;;;;;;;9.98;4.20;;;;;;;2.27;93.81;100586.07;2961954;80;20125;-68
2022/02/03 02:55:21;;;;;;;9.93;4.12;;;;;;;2.24;93.80;100588.83;2960569;79;21026;-68
2022/02/03 03:34:01;;;;;;;6.85;2.83;;;;;;;2.28;92.22;100628.02;2961750;80;20464;-69
2022/02/03 03:38:00;;;;;;;6.50;3.42;;;;;;;2.22;92.36;100628.73;2960477;79;21034;-68
2022/02/03 03:42:04;;;;;;;7.40;5.17;;;;;;;2.31;92.02;100626.19;2962019;80;20979;-68
2022/02/03 03:46:29;;;;;;;12.60;4.45;;;;;;;2.37;91.59;100627.23;2962247;79;21046;-69
2022/02/03 03:50:38;;;;;;;7.03;3.85;;;;;;;2.48;91.26;100626.77;2961789;79;21042;-68
2022/02/03 03:54:54;;;;;;;19.65;5.50;;;;;;;2.57;91.16;100623.77;2962048;79;21019;-69
2022/02/03 03:59:19;;;;;;;15.80;5.08;;;;;;;2.67;90.98;100638.19;2961207;79;21042;-68
2022/02/03 04:38:21;;;;;;;10.72;5.47;;;;;;;2.80;90.74;100645.55;2961476;79;21304;-74
2022/02/03 04:42:44;;;;;;;15.48;6.65;;;;;;;2.83;90.78;100646.73;2958709;79;21078;-72
2022/02/03 05:09:20;;;;;;;10.05;5.58;;;;;;;2.78;90.82;100638.20;2895034;80;21022;-73
2022/02/03 05:44:17;;;;;;;13.38;5.10;;;;;;;2.85;89.78;100643.57;2961737;79;21014;-72
2022/02/03 05:52:55;;;;;;;14.83;5.83;;;;;;;2.95;88.92;100637.45;2960338;79;21550;-74
2022/02/03 06:01:22;;;;;;;13.43;5.03;;;;;;;3.03;89.03;100638.42;2961787;79;21554;-73
2022/02/03 06:13:35;;;;;;;16.55;4.80;;;;;;;3.24;88.44;100646.66;2962596;79;21031;-72
2022/02/03 06:21:50;;;;;;;14.10;5.25;;;;;;;3.27;87.70;100640.41;2961667;80;21568;-72
2022/02/03 06:29:51;;;;;;;10.50;3.85;;;;;;;3.35;87.30;100646.64;2962525;79;20999;-71
2022/02/03 06:33:48;;;;;;;11.40;4.78;;;;;;;3.31;87.03;100645.92;2960863;79;21066;-77
2022/02/03 06:37:50;;;;;;;9.65;3.45;;;;;;;3.32;87.03;100642.36;2962148;80;21043;-70
2022/02/03 06:41:57;;;;;;;8.63;4.10;;;;;;;3.33;87.12;100644.52;2962555;80;21524;-70
2022/02/03 06:46:03;;;;;;;9.75;4.92;;;;;;;3.38;86.84;100639.92;2961231;80;21003;-77
2022/02/03 06:54:28;;;;;;;11.88;3.98;;;;;;;3.42;86.90;100634.91;2961999;79;21658;-75
2022/02/03 06:58:33;;;;;;;13.43;5.05;;;;;;;3.45;86.90;100641.33;2959642;80;21070;-76
2022/02/03 07:02:32;;;;;;;11.57;3.58;;;;;;;3.53;86.95;100645.76;2961271;79;21054;-76
2022/02/03 07:06:33;;;;;;;9.15;4.72;;;;;;;3.63;87.01;100651.92;2960993;79;20987;-71
2022/02/03 07:10:34;;;;;;;8.00;4.72;;;;;;;3.79;86.99;100648.09;2962767;79;20991;-73
2022/02/03 07:14:37;;;;;;;8.10;3.85;;;;;;;3.91;86.80;100641.38;2962389;79;21412;-74
2022/02/03 07:18:38;;;;;;;11.83;3.80;;;;;;;4.09;86.54;100637.86;2962295;79;21000;-75
2022/02/03 07:22:42;;;;;;;9.78;3.40;;;;;;;4.20;85.43;100639.95;2963485;79;21007;-74
2022/02/03 07:26:43;;;;;;;7.05;3.70;;;;;;;4.21;85.01;100628.98;2962613;79;21046;-71
2022/02/03 07:30:45;;;;;;;27.87;8.58;;;;;;;4.18;85.27;100626.50;2963279;79;21564;-73
2022/02/03 07:34:47;;;;;;;13.95;7.72;;;;;;;4.20;85.13;100624.64;2968434;80;21054;-70
2022/02/03 07:38:48;;;;;;;34.10;14.70;;;;;;;4.18;85.28;100614.65;2968737;80;21069;-70
2022/02/03 07:42:51;;;;;;;18.30;6.67;;;;;;;4.11;85.24;100618.88;2968536;79;21022;-70
2022/02/03 07:46:53;;;;;;;11.05;4.03;;;;;;;4.07;85.49;100613.39;2969217;79;21002;-70
2022/02/03 07:50:55;;;;;;;14.85;6.15;;;;;;;4.10;85.76;100609.28;2968993;79;21949;-72
2022/02/03 07:54:57;;;;;;;22.73;6.95;;;;;;;4.19;86.58;100603.19;2968411;79;21011;-73
2022/02/03 07:58:59;;;;;;;29.52;10.85;;;;;;;4.20;85.45;100594.36;2969048;80;21575;-73
2022/02/03 08:03:05;;;;;;;33.05;14.78;;;;;;;4.24;85.92;100590.63;2969414;79;21011;-73
2022/02/03 08:07:04;;;;;;;39.75;17.67;;;;;;;4.26;86.16;100584.82;2968382;79;21053;-76
2022/02/03 08:11:11;;;;;;;45.80;18.62;;;;;;;4.35;85.75;100581.73;2969480;79;21077;-74
2022/02/03 08:15:10;;;;;;;25.95;12.53;;;;;;;4.45;85.83;100574.66;2968428;79;21054;-75
2022/02/03 08:19:18;;;;;;;23.00;9.30;;;;;;;4.49;85.03;100569.61;2969669;79;20968;-72
2022/02/03 08:31:39;;;;;;;20.37;8.23;;;;;;;4.83;83.14;100565.21;2968360;78;21042;-71
2022/02/03 08:35:40;;;;;;;14.93;7.50;;;;;;;5.08;82.50;100553.33;2962234;79;21046;-72
2022/02/03 08:39:52;;;;;;;13.90;6.53;;;;;;;5.24;81.49;100549.41;2963977;79;21521;-73
2022/02/03 08:43:43;;;;;;;18.73;7.80;;;;;;;5.51;80.29;100543.05;2962022;80;20995;-73
2022/02/03 08:47:45;;;;;;;18.60;7.95;;;;;;;5.84;79.83;100542.53;2964314;79;20979;-73
2022/02/03 08:51:47;;;;;;;16.73;8.40;;;;;;;6.09;78.59;100534.52;2964235;80;21027;-75
2022/02/03 09:38:15;;;;;;;9.55;5.45;;;;;;;7.46;69.75;100483.79;2937548;79;21018;-73
2022/02/03 09:59:36;;;;;;;8.33;5.67;;;;;;;7.94;67.54;100470.86;2964058;80;21047;-72
2022/02/03 10:03:00;;;;;;;;;;;;;;;8.13;67.08;100468.27;2954504;80;21058;-73
2022/02/03 10:07:09;;;;;;;10.00;5.53;;;;;;;8.27;67.05;100468.67;2964476;80;20153;-73
2022/02/03 10:11:18;;;;;;;13.55;7.03;;;;;;;8.35;66.48;100471.63;2964696;79;21010;-73
2022/02/03 10:15:22;;;;;;;11.88;5.95;;;;;;;8.47;65.77;100467.76;2964751;79;21666;-72
2022/02/03 10:19:30;;;;;;;14.15;6.42;;;;;;;8.53;65.14;100462.05;2964096;79;21018;-73
2022/02/03 10:23:29;;;;;;;13.35;6.78;;;;;;;8.62;64.72;100454.75;2963709;79;21005;-71
2022/02/03 10:27:37;;;;;;;10.28;4.55;;;;;;;8.68;64.43;100444.19;2963288;79;21018;-71
2022/02/03 10:31:40;;;;;;;8.68;4.25;;;;;;;8.73;63.80;100448.68;2962559;79;21078;-76
2022/02/03 10:48:37;;;;;;;11.33;4.80;;;;;;;8.99;65.69;100433.53;2940863;80;21000;-73
2022/02/03 10:52:49;;;;;;;10.00;3.95;;;;;;;9.14;63.79;100430.73;2956317;80;21011;-73
2022/02/03 11:01:06;;;;;;;11.60;4.87;;;;;;;9.28;65.05;100422.59;2964696;79;21047;-76
2022/02/03 11:09:23;;;;;;;6.22;3.02;;;;;;;9.46;62.61;100404.92;2965029;79;21627;-75
2022/02/03 11:13:19;;;;;;;4.42;3.52;;;;;;;9.57;63.72;100399.63;2962494;79;21315;-72
2022/02/03 11:17:21;;;;;;;8.08;4.58;;;;;;;9.58;61.41;100391.20;2963568;80;21085;-73
2022/02/03 11:21:24;;;;;;;5.75;2.80;;;;;;;9.67;63.27;100388.32;2964631;79;21062;-75
2022/02/03 11:30:29;;;;;;;3.25;2.17;;;;;;;9.74;62.53;100394.84;2963693;79;21046;-73
2022/02/03 11:43:21;;;;;;;4.37;2.33;;;;;;;9.82;60.54;100375.16;2974619;80;20951;-72
2022/02/03 11:55:30;;;;;;;7.15;3.37;;;;;;;9.99;61.33;100359.25;2974558;80;20978;-72
2022/02/03 12:20:57;;;;;;;11.53;4.92;;;;;;;10.06;63.29;100324.21;2974241;80;21031;-72
2022/02/03 12:25:07;;;;;;;;;;;;;;;10.10;63.83;100301.27;2961099;80;20991;-75
2022/02/03 12:29:15;;;;;;;9.65;3.85;;;;;;;10.05;63.15;100296.80;2972646;78;20267;-72
2022/02/03 12:36:59;;;;;;;7.42;2.45;;;;;;;10.05;63.08;100294.15;2969210;79;21614;-73
2022/02/03 12:41:33;;;;;;;6.83;2.30;;;;;;;10.09;63.55;100281.44;2964263;79;20995;-72
2022/02/03 12:45:26;;;;;;;3.02;2.02;;;;;;;10.13;63.92;100272.28;2962653;80;21038;-74
2022/02/03 12:49:33;;;;;;;3.75;2.65;;;;;;;10.21;63.44;100267.64;2964794;80;21011;-72
2022/02/03 12:53:40;;;;;;;3.27;2.20;;;;;;;10.30;63.34;100262.92;2965014;79;21034;-73
2022/02/03 12:57:42;;;;;;;4.40;2.30;;;;;;;10.35;63.19;100253.25;2965209;80;21022;-71
2022/02/03 13:01:45;;;;;;;7.33;3.12;;;;;;;10.42;63.93;100250.00;2945038;80;21575;-73
2022/02/03 13:05:57;;;;;;;3.62;2.27;;;;;;;10.35;62.07;100243.45;2964942;80;21030;-72
2022/02/03 13:10:10;;;;;;;5.65;2.67;;;;;;;10.37;62.43;100253.47;2964680;79;21015;-72
2022/02/03 13:14:32;;;;;;;6.12;2.50;;;;;;;10.48;63.21;100250.47;2964854;80;20995;-72
2022/02/03 13:18:34;;;;;;;10.90;4.42;;;;;;;10.54;63.34;100253.47;2963387;79;21074;-72
2022/02/03 13:22:46;;;;;;;21.55;5.00;;;;;;;10.50;62.76;100263.14;2964538;79;21023;-72
2022/02/03 13:26:39;;;;;;;12.07;6.42;;;;;;;10.52;62.78;100265.19;2963607;79;21038;-73
2022/02/03 13:35:00;;;;;;;15.18;8.63;;;;;;;10.41;62.62;100261.58;2971679;79;21064;-72
2022/02/03 13:39:07;;;;;;;19.87;11.35;;;;;;;10.30;63.57;100252.30;2972502;79;21015;-74
2022/02/03 13:43:08;;;;;;;10.93;7.12;;;;;;;10.28;63.15;100255.06;2973248;79;20979;-71
2022/02/03 13:47:27;;;;;;;17.32;7.42;;;;;;;10.17;62.58;100248.93;2973880;79;21039;-74
2022/02/03 13:51:37;;;;;;;14.58;6.45;;;;;;;10.15;63.06;100249.90;2974336;79;21030;-72
2022/02/03 14:18:12;;;;;;;19.57;9.80;;;;;;;9.75;63.72;100231.02;2974854;80;20967;-70
2022/02/03 14:30:01;;;;;;;13.13;9.27;;;;;;;9.20;64.73;100218.44;2974253;80;21395;-70
2022/02/03 14:34:01;;;;;;;15.10;6.87;;;;;;;9.21;65.76;100212.98;2968825;79;21008;-70
2022/02/03 14:38:12;;;;;;;10.60;7.80;;;;;;;9.03;66.19;100223.69;2965351;79;21050;-70
2022/02/03 14:42:07;;;;;;;15.08;6.80;;;;;;;8.98;67.72;100213.45;2963242;80;21015;-72
2022/02/03 14:46:13;;;;;;;9.70;6.60;;;;;;;8.77;69.05;100207.95;2965056;79;20987;-70
2022/02/03 14:50:13;;;;;;;16.35;7.62;;;;;;;8.60;70.78;100202.12;2964322;80;21055;-70
2022/02/03 14:58:31;;;;;;;22.67;12.00;;;;;;;8.28;71.99;100191.59;2964538;79;21082;-73
2022/02/03 15:02:33;;;;;;;15.08;10.68;;;;;;;8.11;72.13;100190.66;2963062;80;20964;-75
2022/02/03 15:06:39;;;;;;;22.55;10.45;;;;;;;7.95;73.95;100186.97;2963777;79;21010;-74
2022/02/03 15:10:45;;;;;;;19.40;8.23;;;;;;;7.80;75.32;100184.95;2962925;79;21050;-70
2022/02/03 15:14:45;;;;;;;14.47;7.65;;;;;;;7.68;75.20;100186.69;2963191;79;21547;-70
2022/02/03 15:18:48;;;;;;;14.18;7.22;;;;;;;7.58;76.94;100180.71;2962954;80;21097;-71
2022/02/03 15:22:50;;;;;;;12.90;8.28;;;;;;;7.45;77.47;100178.55;2962677;80;21003;-77
2022/02/03 15:26:51;;;;;;;22.87;9.88;;;;;;;7.32;77.92;100165.84;2963589;79;21063;-70
2022/02/03 15:30:54;;;;;;;22.67;10.30;;;;;;;7.27;77.71;100168.34;2963793;79;21050;-71
2022/02/03 15:34:56;;;;;;;21.40;9.40;;;;;;;7.25;78.30;100162.77;2963456;79;21011;-76
2022/02/03 15:38:58;;;;;;;19.00;9.55;;;;;;;7.15;78.44;100161.24;2963868;79;21027;-75
2022/02/03 15:43:06;;;;;;;20.02;7.83;;;;;;;7.10;79.14;100156.76;2963706;80;21077;-74
2022/02/03 15:47:14;;;;;;;;;;;;;;;7.06;79.90;100161.86;2966052;79;20956;-74
2022/02/03 16:04:01;;;;;;;19.90;9.73;;;;;;;6.72;82.52;100133.30;2963400;79;21026;-76
2022/02/03 16:20:27;;;;;;;24.90;11.60;;;;;;;6.58;84.35;100118.39;2962370;79;20998;-80
2022/02/03 16:54:01;;;;;;;18.82;11.83;;;;;;;6.33;85.14;100098.92;2970875;80;21418;-77
2022/02/03 16:58:04;;;;;;;17.80;12.15;;;;;;;6.33;85.20;100088.81;2969700;79;20963;-79
2022/02/03 17:02:04;;;;;;;25.92;12.95;;;;;;;6.38;84.75;100081.41;2971272;79;21031;-70
2022/02/03 17:06:07;;;;;;;16.85;10.85;;;;;;;6.36;84.64;100076.70;2970836;80;21038;-76
2022/02/03 17:10:09;;;;;;;31.95;12.78;;;;;;;6.35;84.54;100075.88;2970147;80;20979;-75
2022/02/03 17:14:11;;;;;;;22.37;14.13;;;;;;;6.35;84.47;100074.56;2971583;79;21082;-70
2022/02/03 17:18:13;;;;;;;18.32;12.98;;;;;;;6.36;84.54;100069.64;2970286;80;21046;-76
2022/02/03 17:22:18;;;;;;;16.20;9.28;;;;;;;6.33;85.05;100063.71;2940065;79;21066;-73
2022/02/03 17:26:36;;;;;;;16.15;10.55;;;;;;;6.35;85.55;100069.27;2915676;81;21016;-72
2022/02/03 18:51:00;;;;;;;13.83;9.95;;;;;;;6.45;89.13;100011.83;2858597;82;21629;-76
2022/02/03 19:28:41;;;;;;;15.60;7.60;;;;;;;6.44;89.82;100011.00;2878868;82;21986;-74
2022/02/03 20:10:30;;;;;;;17.57;11.48;;;;;;;6.62;88.53;99988.20;2879497;82;20992;-71
2022/02/03 20:14:28;;;;;;;18.20;10.30;;;;;;;6.66;88.46;99986.54;2877725;82;21063;-69
2022/02/03 20:18:29;;;;;;;16.07;10.95;;;;;;;6.68;88.27;99980.70;2897939;81;21492;-72
2022/02/03 20:22:37;;;;;;;13.28;9.10;;;;;;;6.70;88.39;99975.28;2868020;82;21665;-71
2022/02/03 20:26:37;;;;;;;14.87;11.08;;;;;;;6.67;88.06;99976.33;2865583;82;21066;-73
2022/02/03 20:30:39;;;;;;;16.40;10.85;;;;;;;6.65;88.29;99967.67;2865682;82;21050;-71
2022/02/03 20:34:41;;;;;;;16.73;10.85;;;;;;;6.70;88.15;99968.22;2864693;81;21544;-71
2022/02/03 20:38:43;;;;;;;19.60;12.60;;;;;;;6.69;88.30;99967.84;2858721;82;21053;-72
2022/02/03 20:42:46;;;;;;;36.20;23.67;;;;;;;6.70;88.20;99963.39;2861767;83;21037;-75
2022/02/03 20:46:47;;;;;;;33.83;18.70;;;;;;;6.65;88.25;99951.81;2861058;83;21030;-74
2022/02/03 20:50:49;;;;;;;43.60;18.85;;;;;;;6.60;88.10;99948.66;2861622;83;21019;-75
2022/02/03 20:54:51;;;;;;;32.48;13.62;;;;;;;6.64;88.43;99948.80;2861459;83;21547;-72
2022/02/03 20:58:53;;;;;;;16.80;12.03;;;;;;;6.69;87.95;99948.02;2862635;83;21053;-74
2022/02/03 21:03:01;;;;;;;20.68;12.10;;;;;;;6.76;87.73;99943.61;2863105;83;21054;-71
2022/02/03 21:06:58;;;;;;;17.67;12.07;;;;;;;6.73;87.80;99941.19;2861714;81;21042;-75
2022/02/03 21:11:01;;;;;;;18.65;11.50;;;;;;;6.73;87.53;99934.58;2878968;82;21023;-73
2022/02/03 21:15:06;;;;;;;19.55;12.68;;;;;;;6.65;87.68;99922.73;2882620;82;21042;-72
2022/02/03 21:19:10;;;;;;;19.92;11.65;;;;;;;6.70;87.44;99920.63;2882045;82;21522;-75
2022/02/03 21:23:12;;;;;;;18.85;10.80;;;;;;;6.78;87.10;99919.23;2820237;84;21552;-75
2022/02/03 21:27:18;;;;;;;21.70;13.38;;;;;;;6.78;86.76;99922.73;2820055;84;21702;-74
2022/02/03 21:31:18;;;;;;;19.10;11.93;;;;;;;6.81;86.71;99926.93;2818923;84;21074;-74
2022/02/03 21:35:22;;;;;;;16.07;10.30;;;;;;;6.86;86.55;99924.80;2845669;82;29278;-75
2022/02/03 21:39:24;;;;;;;17.80;11.03;;;;;;;6.94;86.01;99924.24;2898376;82;21031;-72
2022/02/03 21:43:25;;;;;;;22.80;11.50;;;;;;;7.01;85.87;99926.83;2897400;82;21042;-71
2022/02/03 21:47:27;;;;;;;19.42;11.03;;;;;;;7.08;85.62;99920.62;2897311;82;21046;-73
2022/02/03 21:51:30;;;;;;;25.12;13.30;;;;;;;7.16;85.31;99926.17;2898205;82;21028;-72
2022/02/03 21:55:34;;;;;;;27.62;13.13;;;;;;;7.24;84.94;99926.45;2897984;82;21023;-72
2022/02/03 21:59:35;;;;;;;13.62;8.53;;;;;;;7.27;84.80;99931.53;2911449;81;21374;-71
2022/02/03 22:03:37;;;;;;;11.95;8.15;;;;;;;7.42;85.00;99935.30;2884036;82;21043;-75
2022/02/03 22:07:42;;;;;;;11.15;7.85;;;;;;;7.47;84.44;99933.18;2897580;82;21003;-75
2022/02/03 22:11:44;;;;;;;13.80;7.70;;;;;;;7.55;84.00;99929.47;2897448;81;21622;-74
2022/02/03 22:15:45;;;;;;;8.98;6.22;;;;;;;7.62;83.84;99940.45;2897496;82;21007;-73
2022/02/03 22:19:51;;;;;;;7.90;5.72;;;;;;;7.52;82.74;99942.08;2897304;82;21106;-76
2022/02/03 22:48:54;;;;;;;12.00;6.72;;;;;;;7.36;83.65;99931.30;2885754;82;21573;-72
2022/02/03 22:52:56;;;;;;;8.05;5.33;;;;;;;7.36;83.60;99931.80;2886451;82;21397;-74
2022/02/03 22:56:58;;;;;;;10.00;5.85;;;;;;;7.24;84.26;99922.47;2883878;81;21059;-75
2022/02/03 23:01:04;;;;;;;8.40;7.25;;;;;;;7.23;84.14;99931.38;2886889;82;21051;-73
2022/02/03 23:05:08;;;;;;;9.40;6.08;;;;;;;7.11;84.70;99919.06;2886465;82;21035;-75
2022/02/03 23:09:30;;;;;;;10.00;6.85;;;;;;;7.12;84.67;99914.97;2885516;81;20995;-75
2022/02/03 23:14:11;;;;;;;9.43;7.95;;;;;;;7.10;84.78;99919.53;2882680;82;21011;-71
2022/02/03 23:17:39;;;;;;;15.40;7.05;;;;;;;7.09;84.92;99917.02;2865836;82;21075;-71
2022/02/03 23:22:06;;;;;;;15.88;11.45;;;;;;;7.01;85.42;99900.38;2885897;82;21035;-70
2022/02/03 23:25:44;;;;;;;15.32;7.33;;;;;;;7.03;85.29;99897.61;2878896;82;21043;-72
2022/02/03 23:29:46;;;;;;;12.47;8.13;;;;;;;7.05;85.23;99894.37;2885417;82;21043;-74
2022/02/03 23:33:49;;;;;;;13.20;8.75;;;;;;;7.09;85.25;99884.78;2885624;82;20992;-73
2022/02/03 23:38:01;;;;;;;12.30;9.45;;;;;;;7.09;85.15;99876.02;2909111;81;21051;-70
